createdAt,value
2018-09-20T00:01:32.809Z,100568.88
2018-09-20T00:04:03.648Z,100570.62
2018-09-20T00:06:35.118Z,100561.61
2018-09-20T00:09:06.904Z,100555.69
2018-09-20T00:11:38.350Z,100560.42
2018-09-20T00:14:08.158Z,100556.78
2018-09-20T00:16:38.753Z,100555.34
2018-09-20T00:19:09.701Z,100548.66
2018-09-20T00:21:40.618Z,100562.30
2018-09-20T00:24:11.582Z,100556.69
2018-09-20T00:26:42.863Z,100563.27
2018-09-20T00:29:13.733Z,100561.19
2018-09-20T00:31:45.294Z,100569.09
2018-09-20T00:34:15.904Z,100564.12
2018-09-20T00:36:46.717Z,100561.82
2018-09-20T00:39:17.756Z,100560.05
2018-09-20T00:41:48.610Z,100561.47
2018-09-20T00:44:19.530Z,100557.50
2018-09-20T00:46:51.023Z,100563.05
2018-09-20T00:49:21.780Z,100562.59
2018-09-20T00:51:52.608Z,100564.64
2018-09-20T00:54:23.741Z,100559.83
2018-09-20T00:56:54.794Z,100563.75
2018-09-20T00:59:26.035Z,100555.77
2018-09-20T01:01:56.740Z,100555.62
2018-09-20T01:04:27.661Z,100556.64
2018-09-20T01:06:58.584Z,100558.69
2018-09-20T01:09:29.510Z,100558.58
2018-09-20T01:12:00.790Z,100559.28
2018-09-20T01:14:39.145Z,100561.50
2018-09-20T01:17:09.465Z,100562.09
2018-09-20T01:19:39.324Z,100561.63
2018-09-20T01:22:09.139Z,100562.86
2018-09-20T01:24:39.569Z,100568.60
2018-09-20T01:27:09.585Z,100568.13
2018-09-20T01:29:39.376Z,100556.94
2018-09-20T01:32:09.303Z,100560.38
2018-09-20T01:34:39.193Z,100547.09
2018-09-20T01:37:09.744Z,100551.81
2018-09-20T01:39:40.699Z,100552.19
2018-09-20T01:42:11.584Z,100554.06
2018-09-20T01:44:42.939Z,100553.41
2018-09-20T01:47:13.877Z,100555.63
2018-09-20T01:49:45.892Z,100557.34
2018-09-20T01:52:15.816Z,100558.19
2018-09-20T01:54:46.636Z,100563.55
2018-09-20T01:57:17.549Z,100557.88
2018-09-20T01:59:48.815Z,100555.63
2018-09-20T02:02:20.029Z,100568.44
2018-09-20T02:04:50.688Z,100565.00
2018-09-20T02:07:21.818Z,100567.53
2018-09-20T02:09:52.613Z,100573.59
2018-09-20T02:12:23.644Z,100572.97
2018-09-20T02:14:54.525Z,100558.92
2018-09-20T02:17:25.908Z,100556.82
2018-09-20T02:19:56.857Z,100570.34
2018-09-20T02:22:27.868Z,100572.05
2018-09-20T02:24:58.757Z,100574.94
2018-09-20T02:27:30.048Z,100577.78
2018-09-20T02:30:00.774Z,100575.48
2018-09-20T02:32:31.671Z,100575.53
2018-09-20T02:35:02.581Z,100573.54
2018-09-20T02:37:33.591Z,100580.44
2018-09-20T02:40:04.545Z,100577.11
2018-09-20T02:42:35.858Z,100580.48
2018-09-20T02:45:06.941Z,100584.35
2018-09-20T02:47:37.841Z,100578.02
2018-09-20T02:50:08.683Z,100573.69
2018-09-20T02:52:39.774Z,100578.92
2018-09-20T02:55:10.613Z,100577.42
2018-09-20T02:57:41.572Z,100575.97
2018-09-20T03:00:12.554Z,100572.48
2018-09-20T03:02:43.833Z,100573.49
2018-09-20T03:05:14.760Z,100578.85
2018-09-20T03:07:45.727Z,100572.37
2018-09-20T03:10:16.602Z,100577.12
2018-09-20T03:12:47.510Z,100583.33
2018-09-20T03:15:18.902Z,100576.63
2018-09-20T03:17:49.709Z,100578.66
2018-09-20T03:20:20.663Z,100572.45
2018-09-20T03:22:51.512Z,100578.17
2018-09-20T03:25:22.902Z,100576.71
2018-09-20T03:27:52.791Z,100577.89
2018-09-20T03:30:24.299Z,100575.91
2018-09-20T03:32:54.832Z,100577.44
2018-09-20T03:35:25.820Z,100571.12
2018-09-20T03:37:56.649Z,100572.63
2018-09-20T03:40:27.635Z,100578.17
2018-09-20T03:42:58.528Z,100571.03
2018-09-20T03:45:29.955Z,100558.62
2018-09-20T03:48:00.737Z,100566.28
2018-09-20T03:50:31.701Z,100570.27
2018-09-20T03:53:02.565Z,100569.09
2018-09-20T03:55:33.863Z,100568.92
2018-09-20T03:58:04.692Z,100569.77
2018-09-20T04:00:35.630Z,100565.77
2018-09-20T04:03:06.549Z,100574.80
2018-09-20T04:05:37.528Z,100572.52
2018-09-20T04:08:07.941Z,100572.36
2018-09-20T04:10:39.903Z,100571.34
2018-09-20T04:13:11.118Z,100573.08
2018-09-20T04:15:41.894Z,100576.57
2018-09-20T04:18:12.788Z,100576.90
2018-09-20T04:20:43.854Z,100579.08
2018-09-20T04:23:14.727Z,100583.26
2018-09-20T04:25:45.666Z,100584.27
2018-09-20T04:28:16.476Z,100579.28
2018-09-20T04:30:47.953Z,100576.80
2018-09-20T04:33:18.681Z,100581.34
2018-09-20T04:35:49.773Z,100591.22
2018-09-20T04:38:20.625Z,100598.23
2018-09-20T04:40:51.726Z,100599.24
2018-09-20T04:43:22.921Z,100594.91
2018-09-20T04:45:53.825Z,100599.08
2018-09-20T04:48:24.697Z,100602.44
2018-09-20T04:50:58.145Z,100605.11
2018-09-20T04:53:28.574Z,100603.94
2018-09-20T04:55:58.734Z,100605.47
2018-09-20T04:58:28.561Z,100601.95
2018-09-20T05:01:00.006Z,100599.14
2018-09-20T05:03:30.939Z,100605.47
2018-09-20T05:06:01.893Z,100606.61
2018-09-20T05:08:32.780Z,100612.31
2018-09-20T05:11:03.949Z,100605.98
2018-09-20T05:13:34.657Z,100611.89
2018-09-20T05:16:05.666Z,100605.03
2018-09-20T05:18:36.552Z,100608.01
2018-09-20T05:21:07.726Z,100609.40
2018-09-20T05:23:38.572Z,100606.70
2018-09-20T05:26:09.717Z,100610.33
2018-09-20T05:28:40.605Z,100611.31
2018-09-20T05:31:11.833Z,100615.33
2018-09-20T05:33:42.828Z,100616.66
2018-09-20T05:36:14.022Z,100612.12
2018-09-20T05:38:44.769Z,100613.63
2018-09-20T05:41:16.314Z,100621.33
2018-09-20T05:43:46.874Z,100615.30
2018-09-20T05:46:18.895Z,100619.27
2018-09-20T05:48:49.233Z,100618.92
2018-09-20T05:51:20.998Z,100620.59
2018-09-20T05:53:50.874Z,100604.92
2018-09-20T05:56:21.831Z,100618.66
2018-09-20T05:58:53.230Z,100620.95
2018-09-20T06:01:24.919Z,100626.63
2018-09-20T06:03:54.753Z,100628.74
2018-09-20T06:06:26.756Z,100623.16
2018-09-20T06:08:56.708Z,100628.95
2018-09-20T06:11:27.819Z,100627.18
2018-09-20T06:13:58.653Z,100627.42
2018-09-20T06:16:29.623Z,100633.06
2018-09-20T06:19:00.415Z,100634.00
2018-09-20T06:21:31.845Z,100631.56
2018-09-20T06:24:08.476Z,100640.84
2018-09-20T06:26:38.689Z,100634.66
2018-09-20T06:29:08.588Z,100633.92
2018-09-20T06:31:38.718Z,100640.75
2018-09-20T06:34:08.661Z,100631.07
2018-09-20T06:36:38.463Z,100637.62
2018-09-20T06:39:11.801Z,100635.80
2018-09-20T06:41:42.277Z,100631.17
2018-09-20T06:44:12.787Z,100628.90
2018-09-20T06:46:42.628Z,100631.14
2018-09-20T06:49:12.567Z,100636.71
2018-09-20T06:51:42.606Z,100635.94
2018-09-20T06:54:13.476Z,100638.78
2018-09-20T06:56:45.064Z,100639.44
2018-09-20T06:59:15.775Z,100639.02
2018-09-20T07:01:46.699Z,100642.13
2018-09-20T07:04:17.524Z,100646.27
2018-09-20T07:06:49.021Z,100639.51
2018-09-20T07:09:19.866Z,100641.80
2018-09-20T07:11:50.820Z,100645.91
2018-09-20T07:14:21.713Z,100645.98
2018-09-20T07:16:51.709Z,100653.39
2018-09-20T07:19:22.599Z,100649.41
2018-09-20T07:21:54.135Z,100651.34
2018-09-20T07:24:24.848Z,100652.36
2018-09-20T07:26:56.071Z,100650.84
2018-09-20T07:29:26.768Z,100648.80
2018-09-20T07:31:57.515Z,100650.08
2018-09-20T07:34:27.511Z,100650.52
2018-09-20T07:36:59.439Z,100646.20
2018-09-20T07:39:29.720Z,100636.66
2018-09-20T07:42:00.823Z,100642.34
2018-09-20T07:44:31.623Z,100640.56
2018-09-20T07:47:02.554Z,100641.48
2018-09-20T07:49:33.505Z,100638.06
2018-09-20T07:52:05.538Z,100643.53
2018-09-20T07:54:35.596Z,100643.79
2018-09-20T07:57:13.096Z,100645.50
2018-09-20T07:59:43.535Z,100644.83
2018-09-20T08:02:13.401Z,100635.73
2018-09-20T08:04:43.499Z,100641.81
2018-09-20T08:07:13.372Z,100635.91
2018-09-20T08:09:43.589Z,100635.08
2018-09-20T08:12:13.560Z,100628.87
2018-09-20T08:14:43.861Z,100624.05
2018-09-20T08:17:15.065Z,100631.56
2018-09-20T08:19:46.000Z,100635.25
2018-09-20T08:22:16.742Z,100631.15
2018-09-20T08:24:47.647Z,100630.41
2018-09-20T08:27:18.458Z,100630.25
2018-09-20T08:29:49.886Z,100634.63
2018-09-20T08:32:20.717Z,100631.44
2018-09-20T08:34:51.745Z,100627.66
2018-09-20T08:37:22.569Z,100630.18
2018-09-20T08:39:54.045Z,100632.81
2018-09-20T08:42:25.087Z,100633.72
2018-09-20T08:44:55.996Z,100635.33
2018-09-20T08:47:27.183Z,100628.91
2018-09-20T08:49:57.808Z,100623.66
2018-09-20T08:52:28.904Z,100616.63
2018-09-20T08:54:59.784Z,100618.85
2018-09-20T08:57:34.681Z,100620.44
2018-09-20T09:00:04.593Z,100618.53
2018-09-20T09:02:34.469Z,100618.59
2018-09-20T09:05:04.446Z,100623.37
2018-09-20T09:07:34.401Z,100622.80
2018-09-20T09:10:06.035Z,100621.89
2018-09-20T09:12:36.621Z,100612.28
2018-09-20T09:15:08.074Z,100613.66
2018-09-20T09:17:38.736Z,100613.61
2018-09-20T09:20:10.191Z,100605.63
2018-09-20T09:22:40.732Z,100608.40
2018-09-20T09:25:11.766Z,100604.59
2018-09-20T09:27:42.608Z,100601.16
2018-09-20T09:30:13.675Z,100596.95
2018-09-20T09:32:44.610Z,100603.04
2018-09-20T09:35:15.977Z,100601.19
2018-09-20T09:37:46.825Z,100594.69
2018-09-20T09:40:18.082Z,100590.39
2018-09-20T09:42:48.635Z,100588.05
2018-09-20T09:45:19.576Z,100593.13
2018-09-20T09:47:50.471Z,100581.34
2018-09-20T09:50:21.866Z,100585.89
2018-09-20T09:52:52.948Z,100586.13
2018-09-20T09:55:23.976Z,100591.12
2018-09-20T09:57:55.541Z,100584.66
2018-09-20T10:00:30.531Z,100586.93
2018-09-20T10:03:00.460Z,100578.02
2018-09-20T10:05:30.317Z,100578.72
2018-09-20T10:08:00.720Z,100572.28
2018-09-20T10:10:30.772Z,100571.06
2018-09-20T10:13:01.089Z,100571.72
2018-09-20T10:15:30.924Z,100571.33
2018-09-20T10:18:01.810Z,100566.83
2018-09-20T10:20:32.662Z,100561.23
2018-09-20T10:23:03.554Z,100565.92
2018-09-20T10:25:34.527Z,100558.91
2018-09-20T10:28:05.645Z,100561.76
2018-09-20T10:30:36.692Z,100556.63
2018-09-20T10:33:07.677Z,100555.87
2018-09-20T10:35:38.535Z,100560.91
2018-09-20T10:38:09.564Z,100550.83
2018-09-20T10:40:40.521Z,100548.39
2018-09-20T10:43:11.903Z,100547.88
2018-09-20T10:45:42.712Z,100548.70
2018-09-20T10:48:13.613Z,100538.09
2018-09-20T10:50:44.555Z,100541.39
2018-09-20T10:53:15.849Z,100540.58
2018-09-20T10:55:46.912Z,100532.36
2018-09-20T10:58:17.862Z,100529.88
2018-09-20T11:00:48.733Z,100526.33
2018-09-20T11:03:21.490Z,100526.81
2018-09-20T11:05:51.458Z,100530.91
2018-09-20T11:08:21.723Z,100528.97
2018-09-20T11:10:52.868Z,100528.34
2018-09-20T11:13:23.765Z,100530.26
2018-09-20T11:15:54.642Z,100516.64
2018-09-20T11:18:25.489Z,100519.02
2018-09-20T11:20:56.708Z,100523.00
2018-09-20T11:23:27.580Z,100508.15
2018-09-20T11:25:58.755Z,100509.98
2018-09-20T11:28:29.738Z,100509.14
2018-09-20T11:31:00.725Z,100503.89
2018-09-20T11:33:31.552Z,100506.25
2018-09-20T11:36:02.709Z,100504.30
2018-09-20T11:38:33.534Z,100498.70
2018-09-20T11:41:04.692Z,100493.51
2018-09-20T11:43:35.547Z,100490.23
2018-09-20T11:46:06.701Z,100494.45
2018-09-20T11:48:37.492Z,100488.52
2018-09-20T11:51:08.585Z,100484.74
2018-09-20T11:53:39.380Z,100478.88
2018-09-20T11:56:11.061Z,100479.80
2018-09-20T11:58:41.658Z,100476.38
2018-09-20T12:01:12.839Z,100473.91
2018-09-20T12:03:43.667Z,100474.63
2018-09-20T12:06:14.749Z,100469.76
2018-09-20T12:08:45.578Z,100471.31
2018-09-20T12:11:16.842Z,100466.44
2018-09-20T12:13:47.613Z,100464.88
2018-09-20T12:16:18.636Z,100465.20
2018-09-20T12:18:49.709Z,100461.88
2018-09-20T12:21:20.794Z,100459.64
2018-09-20T12:23:51.691Z,100453.25
2018-09-20T12:26:21.817Z,100455.73
2018-09-20T12:28:52.623Z,100447.34
2018-09-20T12:31:24.358Z,100446.97
2018-09-20T12:33:54.962Z,100446.03
2018-09-20T12:36:25.777Z,100438.66
2018-09-20T12:38:56.691Z,100434.19
2018-09-20T12:41:27.705Z,100433.16
2018-09-20T12:43:58.566Z,100426.92
2018-09-20T12:46:29.518Z,100421.37
2018-09-20T12:49:00.645Z,100429.22
2018-09-20T12:51:31.613Z,100416.69
2018-09-20T12:54:02.647Z,100418.81
2018-09-20T12:56:33.793Z,100417.23
2018-09-20T12:59:04.909Z,100410.86
2018-09-20T13:01:36.061Z,100411.42
2018-09-20T13:04:06.788Z,100410.50
2018-09-20T13:06:38.793Z,100410.76
2018-09-20T13:09:10.675Z,100403.83
2018-09-20T13:11:40.758Z,100404.28
2018-09-20T13:14:11.200Z,100394.63
2018-09-20T13:16:41.959Z,100403.88
2018-09-20T13:19:13.302Z,100398.57
2018-09-20T13:21:43.841Z,100397.34
2018-09-20T13:24:14.746Z,100399.02
2018-09-20T13:26:46.698Z,100390.97
2018-09-20T13:29:18.059Z,100391.92
2018-09-20T13:31:48.084Z,100385.02
2018-09-20T13:34:17.919Z,100380.29
2018-09-20T13:36:48.898Z,100379.23
2018-09-20T13:39:19.752Z,100375.02
2018-09-20T13:41:50.984Z,100380.54
2018-09-20T13:44:22.127Z,100377.95
2018-09-20T13:46:53.072Z,100380.00
2018-09-20T13:49:23.711Z,100376.95
2018-09-20T13:51:54.591Z,100367.15
2018-09-20T13:54:25.709Z,100369.79
2018-09-20T13:56:56.762Z,100369.20
2018-09-20T13:59:27.852Z,100363.83
2018-09-20T14:01:59.630Z,100365.27
2018-09-20T14:04:29.737Z,100364.97
2018-09-20T14:07:01.498Z,100360.52
2018-09-20T14:09:31.570Z,100358.27
2018-09-20T14:12:02.616Z,100356.11
2018-09-20T14:14:33.564Z,100348.23
2018-09-20T14:17:04.494Z,100353.10
2018-09-20T14:19:35.667Z,100347.42
2018-09-20T14:22:06.568Z,100337.25
2018-09-20T14:24:37.736Z,100340.91
2018-09-20T14:27:08.731Z,100340.31
2018-09-20T14:29:39.711Z,100327.16
2018-09-20T14:32:11.819Z,100327.19
2018-09-20T14:34:41.780Z,100328.48
2018-09-20T14:37:12.627Z,100332.33
2018-09-20T14:39:43.545Z,100328.52
2018-09-20T14:42:14.525Z,100329.73
2018-09-20T14:44:45.462Z,100327.75
2018-09-20T14:47:16.820Z,100328.61
2018-09-20T14:49:47.706Z,100329.07
2018-09-20T14:52:18.537Z,100327.87
2018-09-20T14:54:49.496Z,100330.78
2018-09-20T14:57:20.474Z,100324.51
2018-09-20T14:59:50.512Z,100325.73
2018-09-20T15:02:21.353Z,100324.34
2018-09-20T15:04:53.113Z,100322.80
2018-09-20T15:07:23.716Z,100321.65
2018-09-20T15:09:54.700Z,100333.02
2018-09-20T15:12:25.638Z,100323.88
2018-09-20T15:14:57.158Z,100325.45
2018-09-20T15:17:27.856Z,100310.67
2018-09-20T15:19:58.798Z,100319.39
2018-09-20T15:22:29.593Z,100320.55
2018-09-20T15:25:00.506Z,100322.72
2018-09-20T15:27:31.445Z,100315.90
2018-09-20T15:30:03.059Z,100324.11
2018-09-20T15:32:33.677Z,100315.14
2018-09-20T15:35:04.999Z,100317.34
2018-09-20T15:37:36.754Z,100321.41
2018-09-20T15:40:06.859Z,100323.48
2018-09-20T15:42:38.099Z,100324.72
2018-09-20T15:45:09.142Z,100322.90
2018-09-20T15:47:39.733Z,100323.12
2018-09-20T15:50:10.719Z,100321.63
2018-09-20T15:52:41.635Z,100317.52
2018-09-20T15:55:52.192Z,100316.67
2018-09-20T15:58:22.294Z,100315.61
2018-09-20T16:00:52.316Z,100316.99
2018-09-20T16:03:22.215Z,100314.97
2018-09-20T16:05:52.069Z,100317.67
2018-09-20T16:08:22.191Z,100312.36
2018-09-20T16:10:52.189Z,100314.34
2018-09-20T16:13:22.122Z,100316.32
2018-09-20T16:15:52.000Z,100314.25
2018-09-20T16:18:21.785Z,100313.84
2018-09-20T16:20:52.018Z,100321.02
2018-09-20T16:23:21.800Z,100318.32
2018-09-20T16:25:51.866Z,100315.09
2018-09-20T16:28:34.726Z,100306.64
2018-09-20T16:31:14.278Z,100313.50
2018-09-20T16:34:12.637Z,100310.80
2018-09-20T16:37:22.520Z,100300.42
2018-09-20T16:39:55.566Z,100297.69
2018-09-20T16:42:28.622Z,100299.30
2018-09-20T16:44:58.742Z,100295.47
2018-09-20T16:47:28.936Z,100300.94
2018-09-20T16:49:58.876Z,100292.73
2018-09-20T16:52:28.814Z,100301.20
2018-09-20T16:54:58.907Z,100297.64
2018-09-20T16:57:29.021Z,100298.14
2018-09-20T16:59:58.865Z,100307.42
2018-09-20T17:02:29.062Z,100297.81
2018-09-20T17:04:59.424Z,100302.08
2018-09-20T17:07:29.401Z,100297.45
2018-09-20T17:09:59.246Z,100301.95
2018-09-20T17:12:29.102Z,100308.59
2018-09-20T17:14:59.377Z,100306.39
2018-09-20T17:17:29.549Z,100306.05
2018-09-20T17:19:59.838Z,100310.38
2018-09-20T17:22:29.914Z,100310.10
2018-09-20T17:24:59.948Z,100303.81
2018-09-20T17:27:30.061Z,100317.16
2018-09-20T17:29:59.873Z,100305.63
2018-09-20T17:32:29.983Z,100312.68
2018-09-20T17:35:00.071Z,100302.27
2018-09-20T17:37:31.269Z,100309.84
2018-09-20T17:40:01.959Z,100307.30
2018-09-20T17:42:32.823Z,100304.75
2018-09-20T17:45:03.026Z,100311.47
2018-09-20T17:47:32.965Z,100313.02
2018-09-20T17:50:03.083Z,100318.64
2018-09-20T17:52:33.508Z,100316.09
2018-09-20T17:55:03.940Z,100321.48
2018-09-20T17:57:36.401Z,100321.16
2018-09-20T18:00:06.629Z,100320.81
2018-09-20T18:02:37.009Z,100325.25
2018-09-20T18:05:07.007Z,100327.08
2018-09-20T18:07:36.947Z,100324.02
2018-09-20T18:10:07.230Z,100323.14
2018-09-20T18:12:37.144Z,100324.16
2018-09-20T18:15:07.417Z,100327.66
2018-09-20T18:17:37.256Z,100324.59
2018-09-20T18:20:07.158Z,100329.68
2018-09-20T18:22:37.233Z,100327.34
2018-09-20T18:25:07.362Z,100327.58
2018-09-20T18:27:37.374Z,100324.05
2018-09-20T18:30:07.603Z,100326.12
2018-09-20T18:32:37.565Z,100318.16
2018-09-20T18:35:07.779Z,100328.19
2018-09-20T18:37:39.272Z,100325.23
2018-09-20T18:40:09.316Z,100327.89
2018-09-20T18:42:39.180Z,100329.59
2018-09-20T18:45:08.810Z,100324.08
2018-09-20T18:47:38.753Z,100323.92
2018-09-20T18:50:08.790Z,100325.25
2018-09-20T18:52:38.980Z,100325.66
2018-09-20T18:55:08.982Z,100325.28
2018-09-20T18:57:38.865Z,100323.75
2018-09-20T19:00:10.098Z,100303.83
2018-09-20T19:02:39.938Z,100327.27
2018-09-20T19:05:09.881Z,100321.27
2018-09-20T19:07:39.718Z,100315.78
2018-09-20T19:10:09.941Z,100316.91
2018-09-20T19:12:39.970Z,100312.77
2018-09-20T19:15:11.177Z,100306.64
2018-09-20T19:17:45.650Z,100312.56
2018-09-20T19:20:15.859Z,100306.05
2018-09-20T19:22:45.865Z,100310.53
2018-09-20T19:25:15.742Z,100308.47
2018-09-20T19:27:46.273Z,100310.39
2018-09-20T19:30:16.074Z,100307.84
2018-09-20T19:32:46.267Z,100306.06
2018-09-20T19:35:16.183Z,100313.90
2018-09-20T19:37:46.087Z,100310.25
2018-09-20T19:40:16.098Z,100311.89
2018-09-20T19:42:46.069Z,100310.53
2018-09-20T19:45:15.982Z,100305.89
2018-09-20T19:47:45.908Z,100305.30
2018-09-20T19:50:15.878Z,100304.69
2018-09-20T19:52:46.388Z,100303.15
2018-09-20T19:55:16.358Z,100302.38
2018-09-20T19:57:46.666Z,100300.22
2018-09-20T20:00:16.959Z,100311.39
2018-09-20T20:02:46.838Z,100303.38
2018-09-20T20:05:16.824Z,100308.28
2018-09-20T20:07:46.857Z,100308.98
2018-09-20T20:10:16.930Z,100312.93
2018-09-20T20:12:46.772Z,100309.77
2018-09-20T20:15:16.982Z,100309.11
2018-09-20T20:17:47.017Z,100310.90
2018-09-20T20:20:16.907Z,100313.70
2018-09-20T20:22:47.094Z,100311.47
2018-09-20T20:25:17.160Z,100314.06
2018-09-20T20:27:46.983Z,100314.83
2018-09-20T20:30:16.894Z,100315.00
2018-09-20T20:32:46.790Z,100317.70
2018-09-20T20:35:16.786Z,100317.23
2018-09-20T20:37:46.778Z,100322.48
2018-09-20T20:40:16.854Z,100320.58
2018-09-20T20:42:46.848Z,100320.06
2018-09-20T20:45:17.069Z,100323.83
2018-09-20T20:47:46.923Z,100331.00
2018-09-20T20:50:16.880Z,100324.70
2018-09-20T20:52:46.789Z,100321.35
2018-09-20T20:55:16.598Z,100315.02
2018-09-20T20:57:46.855Z,100314.13
2018-09-20T21:00:16.926Z,100323.02
2018-09-20T21:02:46.769Z,100323.48
2018-09-20T21:05:16.928Z,100319.05
2018-09-20T21:07:46.841Z,100322.77
2018-09-20T21:10:16.833Z,100317.52
2018-09-20T21:12:46.793Z,100316.64
2018-09-20T21:15:16.743Z,100317.09
2018-09-20T21:17:46.806Z,100316.09
2018-09-20T21:20:16.817Z,100315.91
2018-09-20T21:22:46.673Z,100311.14
2018-09-20T21:25:16.808Z,100310.11
2018-09-20T21:27:46.829Z,100312.69
2018-09-20T21:30:16.934Z,100311.55
2018-09-20T21:32:46.948Z,100310.66
2018-09-20T21:35:16.812Z,100305.80
2018-09-20T21:38:05.942Z,100302.23
2018-09-20T21:40:36.143Z,100305.73
2018-09-20T21:43:06.015Z,100301.93
2018-09-20T21:45:35.797Z,100301.52
2018-09-20T21:48:05.832Z,100303.03
2018-09-20T21:50:35.750Z,100303.70
2018-09-20T21:53:05.742Z,100294.28
2018-09-20T21:55:35.707Z,100294.01
2018-09-20T21:58:05.966Z,100295.66
2018-09-20T22:00:35.758Z,100287.84
2018-09-20T22:03:06.002Z,100287.69
2018-09-20T22:05:36.271Z,100291.80
2018-09-20T22:08:05.974Z,100285.19
2018-09-20T22:10:35.606Z,100283.23
2018-09-20T22:13:05.508Z,100281.06
2018-09-20T22:15:35.289Z,100283.31
2018-09-20T22:18:04.904Z,100273.92
2018-09-20T22:20:34.526Z,100270.02
2018-09-20T22:23:09.424Z,100269.98
2018-09-20T22:25:39.089Z,100266.52
2018-09-20T22:28:08.605Z,100266.52
2018-09-20T22:30:38.581Z,100262.11
2018-09-20T22:33:08.476Z,100259.11
2018-09-20T22:35:38.373Z,100258.97
2018-09-20T22:38:07.945Z,100260.76
2018-09-20T22:40:37.725Z,100250.28
2018-09-20T22:43:07.404Z,100249.23
2018-09-20T22:45:37.253Z,100256.88
2018-09-20T22:48:07.089Z,100251.19
2018-09-20T22:50:37.518Z,100247.45
2018-09-20T22:53:07.813Z,100247.41
2018-09-20T22:55:37.659Z,100248.83
2018-09-20T22:58:07.738Z,100242.16
2018-09-20T23:00:37.532Z,100238.62
2018-09-20T23:03:07.512Z,100237.41
2018-09-20T23:05:37.328Z,100233.13
2018-09-20T23:08:07.545Z,100232.75
2018-09-20T23:10:37.365Z,100237.41
2018-09-20T23:13:07.448Z,100237.44
2018-09-20T23:15:37.471Z,100231.09
2018-09-20T23:18:07.410Z,100240.02
2018-09-20T23:20:37.329Z,100236.09
2018-09-20T23:23:07.840Z,100234.31
2018-09-20T23:25:38.778Z,100227.18
2018-09-20T23:28:09.849Z,100222.20
2018-09-20T23:30:40.673Z,100224.11
2018-09-20T23:33:11.556Z,100224.03
2018-09-20T23:35:42.516Z,100224.13
2018-09-20T23:38:13.929Z,100220.83
2018-09-20T23:40:44.641Z,100218.99
2018-09-20T23:43:15.609Z,100218.01
2018-09-20T23:45:45.636Z,100214.66
2018-09-20T23:48:16.539Z,100208.04
2018-09-20T23:50:47.794Z,100209.58
2018-09-20T23:53:18.801Z,100208.30
2018-09-20T23:55:50.273Z,100196.92
2018-09-20T23:58:21.013Z,100203.56
